UZB21 UZTT-UZSB
Flight info
| Callsign | UZB21 |
|---|---|
| Flight time | 0h 50m |
| Altitude | 34000 |
| Route | K0822F340 KUFIM1A KUFIM L143 UVASU T388 TUKRI TUKRI2X |
| Aircraft | A20N/M-SDE2E3FGHIRWXY/LB1 |
Departure
| Time | 2026-04-19 07:58 |
|---|---|
| Airport | Tashkent International Airport (UZTT) |
Arrival
| Time | 2026-04-19 08:48 |
|---|---|
| Airport | Bukhara International Airport (UZSB) |
| Time | Latitude | Longitude | Altitude | Speed | Heading |
|---|---|---|---|---|---|
| 2026-04-19 07:36 | 41.26313 | 69.27320 | 1414 ft | 0 kts | 352° |
| 2026-04-19 07:44 | 41.26317 | 69.27319 | 1410 ft | 3 kts | 352° |
| 2026-04-19 07:44 | 41.26330 | 69.27315 | 1408 ft | 0 kts | 347° |
| 2026-04-19 07:45 | 41.26339 | 69.27312 | 1417 ft | 0 kts | 342° |
| 2026-04-19 07:50 | 41.26345 | 69.27309 | 1403 ft | 3 kts | 338° |
| 2026-04-19 07:52 | 41.26346 | 69.27305 | 1405 ft | 3 kts | 308° |
| 2026-04-19 07:52 | 41.26345 | 69.27284 | 1411 ft | 7 kts | 263° |
| 2026-04-19 07:52 | 41.26341 | 69.27247 | 1416 ft | 8 kts | 262° |
| 2026-04-19 07:53 | 41.26332 | 69.27171 | 1410 ft | 9 kts | 261° |
| 2026-04-19 07:53 | 41.26315 | 69.27024 | 1410 ft | 17 kts | 257° |
| 2026-04-19 07:53 | 41.26277 | 69.26996 | 1419 ft | 9 kts | 155° |
| 2026-04-19 07:53 | 41.26178 | 69.27107 | 1414 ft | 23 kts | 137° |
| 2026-04-19 07:54 | 41.26129 | 69.27163 | 1410 ft | 20 kts | 140° |
| 2026-04-19 07:54 | 41.26040 | 69.27269 | 1412 ft | 19 kts | 137° |
| 2026-04-19 07:54 | 41.25947 | 69.27387 | 1411 ft | 16 kts | 151° |
| 2026-04-19 07:54 | 41.25869 | 69.27466 | 1419 ft | 13 kts | 139° |
| 2026-04-19 07:55 | 41.25812 | 69.27492 | 1414 ft | 8 kts | 199° |
| 2026-04-19 07:55 | 41.25765 | 69.27381 | 1419 ft | 20 kts | 261° |
| 2026-04-19 07:55 | 41.25744 | 69.27197 | 1414 ft | 20 kts | 261° |
| 2026-04-19 07:55 | 41.25724 | 69.27012 | 1412 ft | 21 kts | 262° |
| 2026-04-19 07:56 | 41.25701 | 69.26827 | 1417 ft | 19 kts | 259° |
| 2026-04-19 07:56 | 41.25686 | 69.26658 | 1414 ft | 18 kts | 263° |
| 2026-04-19 07:56 | 41.25638 | 69.26532 | 1418 ft | 12 kts | 208° |
| 2026-04-19 07:56 | 41.25574 | 69.26543 | 1415 ft | 8 kts | 148° |
| 2026-04-19 07:57 | 41.25527 | 69.26583 | 1415 ft | 8 kts | 147° |
| 2026-04-19 07:57 | 41.25495 | 69.26623 | 1418 ft | 5 kts | 114° |
| 2026-04-19 07:57 | 41.25496 | 69.26678 | 1415 ft | 0 kts | 81° |
| 2026-04-19 07:57 | 41.25506 | 69.26769 | 1421 ft | 35 kts | 82° |
| 2026-04-19 07:58 | 41.25575 | 69.27388 | 1417 ft | 99 kts | 81° |
| 2026-04-19 07:58 | 41.25656 | 69.28127 | 1415 ft | 139 kts | 82° |
| 2026-04-19 07:58 | 41.25860 | 69.30074 | 1766 ft | 168 kts | 80° |
| 2026-04-19 07:58 | 41.25961 | 69.31103 | 2146 ft | 169 kts | 80° |
| 2026-04-19 07:59 | 41.26138 | 69.32666 | 2873 ft | 173 kts | 80° |
| 2026-04-19 07:59 | 41.26329 | 69.34323 | 3427 ft | 197 kts | 81° |
| 2026-04-19 07:59 | 41.26546 | 69.36240 | 3437 ft | 221 kts | 81° |
| 2026-04-19 07:59 | 41.26781 | 69.38346 | 3442 ft | 239 kts | 81° |
| 2026-04-19 08:00 | 41.27021 | 69.40523 | 3483 ft | 236 kts | 82° |
| 2026-04-19 08:00 | 41.27253 | 69.42658 | 3475 ft | 232 kts | 81° |
| 2026-04-19 08:00 | 41.27485 | 69.44771 | 3480 ft | 231 kts | 82° |
| 2026-04-19 08:00 | 41.27710 | 69.46878 | 3467 ft | 230 kts | 81° |
| 2026-04-19 08:01 | 41.27941 | 69.49014 | 3913 ft | 237 kts | 82° |
| 2026-04-19 08:01 | 41.28068 | 69.51176 | 4348 ft | 233 kts | 95° |
| 2026-04-19 08:01 | 41.27579 | 69.53187 | 4465 ft | 229 kts | 126° |
| 2026-04-19 08:01 | 41.26386 | 69.54517 | 4479 ft | 226 kts | 159° |
| 2026-04-19 08:02 | 41.24864 | 69.55054 | 4528 ft | 227 kts | 171° |
| 2026-04-19 08:02 | 41.23276 | 69.55350 | 5022 ft | 234 kts | 173° |
| 2026-04-19 08:02 | 41.21670 | 69.55608 | 5381 ft | 231 kts | 176° |
| 2026-04-19 08:02 | 41.20089 | 69.55385 | 5474 ft | 229 kts | 201° |
| 2026-04-19 08:03 | 41.18802 | 69.54190 | 5478 ft | 227 kts | 233° |
| 2026-04-19 08:03 | 41.18159 | 69.52327 | 5487 ft | 228 kts | 257° |
| 2026-04-19 08:03 | 41.17884 | 69.50242 | 5478 ft | 230 kts | 262° |
| 2026-04-19 08:03 | 41.17678 | 69.48130 | 5477 ft | 231 kts | 263° |
| 2026-04-19 08:04 | 41.17473 | 69.46014 | 5555 ft | 232 kts | 262° |
| 2026-04-19 08:04 | 41.17254 | 69.43875 | 6205 ft | 235 kts | 262° |
| 2026-04-19 08:04 | 41.17027 | 69.41733 | 7217 ft | 232 kts | 261° |
| 2026-04-19 08:04 | 41.16801 | 69.39622 | 7892 ft | 230 kts | 260° |
| 2026-04-19 08:05 | 41.16572 | 69.37521 | 7972 ft | 230 kts | 260° |
| 2026-04-19 08:05 | 41.16339 | 69.35419 | 7973 ft | 231 kts | 260° |
| 2026-04-19 08:05 | 41.16102 | 69.33300 | 7974 ft | 231 kts | 260° |
| 2026-04-19 08:05 | 41.15866 | 69.31189 | 7962 ft | 231 kts | 260° |
| 2026-04-19 08:06 | 41.15630 | 69.29075 | 7966 ft | 231 kts | 260° |
| 2026-04-19 08:06 | 41.15395 | 69.26964 | 8042 ft | 231 kts | 259° |
| 2026-04-19 08:06 | 41.15157 | 69.24837 | 8681 ft | 233 kts | 259° |
| 2026-04-19 08:06 | 41.14922 | 69.22734 | 9773 ft | 228 kts | 258° |
| 2026-04-19 08:07 | 41.14692 | 69.20673 | 10751 ft | 224 kts | 258° |
| 2026-04-19 08:07 | 41.14462 | 69.18654 | 11596 ft | 225 kts | 257° |
| 2026-04-19 08:07 | 41.14104 | 69.16623 | 12353 ft | 230 kts | 249° |
| 2026-04-19 08:07 | 41.13372 | 69.14640 | 12748 ft | 251 kts | 234° |
| 2026-04-19 08:08 | 41.12129 | 69.12880 | 13071 ft | 275 kts | 218° |
| 2026-04-19 08:08 | 41.10372 | 69.11631 | 13420 ft | 301 kts | 201° |
| 2026-04-19 08:08 | 41.08212 | 69.11225 | 13770 ft | 328 kts | 182° |
| 2026-04-19 08:08 | 41.05859 | 69.11529 | 14090 ft | 350 kts | 176° |
| 2026-04-19 08:09 | 41.03387 | 69.12019 | 14390 ft | 369 kts | 175° |
| 2026-04-19 08:09 | 41.00790 | 69.12545 | 14683 ft | 386 kts | 175° |
| 2026-04-19 08:09 | 40.98085 | 69.13077 | 15045 ft | 399 kts | 175° |
| 2026-04-19 08:09 | 40.95315 | 69.13572 | 15575 ft | 405 kts | 178° |
| 2026-04-19 08:10 | 40.92508 | 69.13429 | 16139 ft | 404 kts | 193° |
| 2026-04-19 08:10 | 40.89871 | 69.12160 | 16744 ft | 404 kts | 210° |
| 2026-04-19 08:10 | 40.87444 | 69.10256 | 17344 ft | 408 kts | 214° |
| 2026-04-19 08:10 | 40.85045 | 69.08213 | 17948 ft | 412 kts | 215° |
| 2026-04-19 08:11 | 40.82684 | 69.06031 | 18504 ft | 416 kts | 221° |
| 2026-04-19 08:11 | 40.80698 | 69.03253 | 19022 ft | 417 kts | 236° |
| 2026-04-19 08:11 | 40.79387 | 68.99835 | 19558 ft | 420 kts | 251° |
| 2026-04-19 08:11 | 40.78895 | 68.96038 | 20102 ft | 424 kts | 268° |
| 2026-04-19 08:12 | 40.79151 | 68.92142 | 20654 ft | 428 kts | 277° |
| 2026-04-19 08:12 | 40.79649 | 68.88251 | 21183 ft | 432 kts | 278° |
| 2026-04-19 08:12 | 40.80179 | 68.84350 | 21702 ft | 434 kts | 278° |
| 2026-04-19 08:12 | 40.80548 | 68.80383 | 22212 ft | 436 kts | 273° |
| 2026-04-19 08:13 | 40.80734 | 68.76372 | 22720 ft | 439 kts | 272° |
| 2026-04-19 08:13 | 40.80879 | 68.72336 | 23215 ft | 442 kts | 271° |
| 2026-04-19 08:13 | 40.80851 | 68.68316 | 23689 ft | 444 kts | 264° |
| 2026-04-19 08:13 | 40.80428 | 68.64268 | 24104 ft | 447 kts | 260° |
| 2026-04-19 08:14 | 40.79801 | 68.60191 | 24509 ft | 449 kts | 258° |
| 2026-04-19 08:14 | 40.78219 | 68.52218 | 25309 ft | 454 kts | 254° |
| 2026-04-19 08:14 | 40.77276 | 68.48248 | 25799 ft | 453 kts | 253° |
| 2026-04-19 08:15 | 40.76308 | 68.44291 | 26325 ft | 452 kts | 253° |
| 2026-04-19 08:15 | 40.75352 | 68.40367 | 26860 ft | 450 kts | 254° |
| 2026-04-19 08:15 | 40.74405 | 68.36422 | 27360 ft | 448 kts | 255° |
| 2026-04-19 08:15 | 40.73479 | 68.32502 | 27896 ft | 446 kts | 255° |
| 2026-04-19 08:16 | 40.72567 | 68.28601 | 28416 ft | 445 kts | 256° |
| 2026-04-19 08:16 | 40.71665 | 68.24718 | 28921 ft | 443 kts | 256° |
| 2026-04-19 08:16 | 40.70764 | 68.20835 | 29445 ft | 441 kts | 256° |
| 2026-04-19 08:16 | 40.69866 | 68.16986 | 29951 ft | 439 kts | 256° |
| 2026-04-19 08:17 | 40.68965 | 68.13142 | 30389 ft | 438 kts | 257° |
| 2026-04-19 08:17 | 40.68068 | 68.09321 | 30786 ft | 436 kts | 257° |
| 2026-04-19 08:17 | 40.67169 | 68.05505 | 31159 ft | 435 kts | 257° |
| 2026-04-19 08:17 | 40.66271 | 68.01702 | 31525 ft | 435 kts | 257° |
| 2026-04-19 08:18 | 40.65372 | 67.97897 | 31898 ft | 433 kts | 257° |
| 2026-04-19 08:18 | 40.64480 | 67.94130 | 32255 ft | 432 kts | 257° |
| 2026-04-19 08:18 | 40.63584 | 67.90351 | 32610 ft | 431 kts | 257° |
| 2026-04-19 08:18 | 40.62688 | 67.86582 | 32952 ft | 430 kts | 257° |
| 2026-04-19 08:19 | 40.61793 | 67.82820 | 33298 ft | 429 kts | 257° |
| 2026-04-19 08:19 | 40.60914 | 67.79129 | 33628 ft | 429 kts | 257° |
| 2026-04-19 08:19 | 40.60022 | 67.75391 | 33955 ft | 428 kts | 257° |
| 2026-04-19 08:19 | 40.59118 | 67.71609 | 34129 ft | 427 kts | 257° |
| 2026-04-19 08:20 | 40.57343 | 67.64204 | 34047 ft | 427 kts | 257° |
| 2026-04-19 08:20 | 40.55556 | 67.56767 | 34046 ft | 427 kts | 257° |
| 2026-04-19 08:21 | 40.53764 | 67.49333 | 34043 ft | 426 kts | 257° |
| 2026-04-19 08:21 | 40.51964 | 67.41898 | 34058 ft | 426 kts | 257° |
| 2026-04-19 08:22 | 40.50166 | 67.34489 | 34042 ft | 425 kts | 257° |
| 2026-04-19 08:22 | 40.48367 | 67.27103 | 34044 ft | 424 kts | 257° |
| 2026-04-19 08:23 | 40.46578 | 67.19775 | 34047 ft | 424 kts | 258° |
| 2026-04-19 08:23 | 40.44775 | 67.12405 | 34052 ft | 423 kts | 258° |
| 2026-04-19 08:24 | 40.42994 | 67.05044 | 34053 ft | 422 kts | 258° |
| 2026-04-19 08:24 | 40.41221 | 66.97703 | 34049 ft | 422 kts | 258° |
| 2026-04-19 08:25 | 40.39446 | 66.90376 | 34048 ft | 421 kts | 258° |
| 2026-04-19 08:25 | 40.37668 | 66.83064 | 34056 ft | 421 kts | 258° |
| 2026-04-19 08:26 | 40.35883 | 66.75757 | 34054 ft | 421 kts | 258° |
| 2026-04-19 08:26 | 40.34095 | 66.68456 | 34054 ft | 420 kts | 258° |
| 2026-04-19 08:27 | 40.32303 | 66.61162 | 34052 ft | 420 kts | 258° |
| 2026-04-19 08:27 | 40.30509 | 66.53881 | 34053 ft | 420 kts | 258° |
| 2026-04-19 08:28 | 40.28709 | 66.46602 | 34052 ft | 420 kts | 258° |
| 2026-04-19 08:28 | 40.26917 | 66.39376 | 34048 ft | 420 kts | 259° |
| 2026-04-19 08:29 | 40.25109 | 66.32110 | 33754 ft | 416 kts | 259° |
| 2026-04-19 08:29 | 40.24210 | 66.28517 | 33012 ft | 415 kts | 259° |
| 2026-04-19 08:29 | 40.23311 | 66.24914 | 32180 ft | 417 kts | 259° |
| 2026-04-19 08:30 | 40.22410 | 66.21301 | 31338 ft | 419 kts | 259° |
| 2026-04-19 08:30 | 40.21504 | 66.17673 | 30526 ft | 421 kts | 259° |
| 2026-04-19 08:30 | 40.20590 | 66.14031 | 29795 ft | 419 kts | 259° |
| 2026-04-19 08:30 | 40.19684 | 66.10431 | 29070 ft | 416 kts | 259° |
| 2026-04-19 08:31 | 40.18779 | 66.06843 | 28380 ft | 413 kts | 259° |
| 2026-04-19 08:31 | 40.17881 | 66.03291 | 27713 ft | 410 kts | 258° |
| 2026-04-19 08:31 | 40.16992 | 65.99774 | 27066 ft | 406 kts | 259° |
| 2026-04-19 08:31 | 40.16104 | 65.96271 | 26434 ft | 403 kts | 258° |
| 2026-04-19 08:32 | 40.15227 | 65.92811 | 25818 ft | 400 kts | 258° |
| 2026-04-19 08:32 | 40.14356 | 65.89376 | 25201 ft | 397 kts | 258° |
| 2026-04-19 08:32 | 40.13489 | 65.85962 | 24600 ft | 394 kts | 258° |
| 2026-04-19 08:32 | 40.12626 | 65.82566 | 24005 ft | 392 kts | 258° |
| 2026-04-19 08:33 | 40.11768 | 65.79197 | 23371 ft | 390 kts | 258° |
| 2026-04-19 08:33 | 40.10914 | 65.75844 | 22678 ft | 387 kts | 258° |
| 2026-04-19 08:33 | 40.10065 | 65.72515 | 21954 ft | 386 kts | 257° |
| 2026-04-19 08:33 | 40.09218 | 65.69196 | 20868 ft | 385 kts | 256° |
| 2026-04-19 08:34 | 40.08379 | 65.65911 | 19490 ft | 389 kts | 255° |
| 2026-04-19 08:34 | 40.07506 | 65.62494 | 17994 ft | 395 kts | 253° |
| 2026-04-19 08:34 | 40.06637 | 65.59110 | 16408 ft | 399 kts | 253° |
| 2026-04-19 08:34 | 40.05752 | 65.55671 | 14872 ft | 400 kts | 252° |
| 2026-04-19 08:35 | 40.04927 | 65.52204 | 13365 ft | 399 kts | 257° |
| 2026-04-19 08:35 | 40.04405 | 65.48655 | 11838 ft | 398 kts | 261° |
| 2026-04-19 08:35 | 40.03992 | 65.45131 | 10829 ft | 385 kts | 261° |
| 2026-04-19 08:35 | 40.03611 | 65.41773 | 10300 ft | 362 kts | 261° |
| 2026-04-19 08:36 | 40.03255 | 65.38653 | 9987 ft | 336 kts | 261° |
| 2026-04-19 08:36 | 40.02919 | 65.35735 | 9713 ft | 312 kts | 261° |
| 2026-04-19 08:36 | 40.02606 | 65.33037 | 9444 ft | 291 kts | 261° |
| 2026-04-19 08:36 | 40.02310 | 65.30492 | 9159 ft | 278 kts | 261° |
| 2026-04-19 08:37 | 40.02018 | 65.28009 | 8879 ft | 276 kts | 261° |
| 2026-04-19 08:37 | 40.01726 | 65.25528 | 8603 ft | 277 kts | 260° |
| 2026-04-19 08:37 | 40.01433 | 65.23045 | 8350 ft | 275 kts | 260° |
| 2026-04-19 08:37 | 40.01142 | 65.20586 | 8099 ft | 274 kts | 260° |
| 2026-04-19 08:38 | 40.00851 | 65.18128 | 7844 ft | 274 kts | 260° |
| 2026-04-19 08:38 | 40.00560 | 65.15671 | 7597 ft | 273 kts | 260° |
| 2026-04-19 08:38 | 40.00269 | 65.13220 | 7446 ft | 273 kts | 259° |
| 2026-04-19 08:38 | 39.99980 | 65.10801 | 7320 ft | 273 kts | 260° |
| 2026-04-19 08:39 | 39.99688 | 65.08350 | 7180 ft | 274 kts | 259° |
| 2026-04-19 08:39 | 39.99394 | 65.05894 | 6797 ft | 275 kts | 259° |
| 2026-04-19 08:39 | 39.99095 | 65.03398 | 6101 ft | 283 kts | 259° |
| 2026-04-19 08:39 | 39.98785 | 65.00823 | 5330 ft | 292 kts | 259° |
| 2026-04-19 08:40 | 39.98467 | 64.98181 | 4569 ft | 298 kts | 259° |
| 2026-04-19 08:40 | 39.98143 | 64.95495 | 3810 ft | 303 kts | 259° |
| 2026-04-19 08:40 | 39.97814 | 64.92761 | 3101 ft | 306 kts | 259° |
| 2026-04-19 08:40 | 39.97485 | 64.90039 | 2671 ft | 299 kts | 259° |
| 2026-04-19 08:41 | 39.97171 | 64.87428 | 2547 ft | 282 kts | 260° |
| 2026-04-19 08:41 | 39.96877 | 64.84986 | 2536 ft | 264 kts | 259° |
| 2026-04-19 08:41 | 39.96594 | 64.82663 | 2544 ft | 257 kts | 259° |
| 2026-04-19 08:41 | 39.96312 | 64.80353 | 2526 ft | 259 kts | 260° |
| 2026-04-19 08:42 | 39.96027 | 64.78029 | 2522 ft | 261 kts | 259° |
| 2026-04-19 08:42 | 39.95741 | 64.75693 | 2526 ft | 260 kts | 259° |
| 2026-04-19 08:42 | 39.95455 | 64.73365 | 2530 ft | 260 kts | 259° |
| 2026-04-19 08:42 | 39.95170 | 64.71041 | 2532 ft | 259 kts | 259° |
| 2026-04-19 08:43 | 39.94884 | 64.68721 | 2526 ft | 260 kts | 259° |
| 2026-04-19 08:43 | 39.94600 | 64.66425 | 2507 ft | 260 kts | 259° |
| 2026-04-19 08:43 | 39.94315 | 64.64099 | 2520 ft | 260 kts | 261° |
| 2026-04-19 08:43 | 39.93976 | 64.61789 | 2505 ft | 259 kts | 252° |
| 2026-04-19 08:44 | 39.93303 | 64.59625 | 2531 ft | 258 kts | 239° |
| 2026-04-19 08:44 | 39.92275 | 64.57810 | 2579 ft | 237 kts | 228° |
| 2026-04-19 08:44 | 39.91264 | 64.56351 | 2600 ft | 198 kts | 226° |
| 2026-04-19 08:44 | 39.90394 | 64.55124 | 2520 ft | 172 kts | 225° |
| 2026-04-19 08:45 | 39.89624 | 64.54053 | 2513 ft | 152 kts | 225° |
| 2026-04-19 08:45 | 39.88919 | 64.53074 | 2549 ft | 149 kts | 224° |
| 2026-04-19 08:45 | 39.88203 | 64.52084 | 2509 ft | 151 kts | 224° |
| 2026-04-19 08:45 | 39.87727 | 64.51412 | 2542 ft | 153 kts | 224° |
| 2026-04-19 08:46 | 39.86899 | 64.50569 | 2499 ft | 150 kts | 204° |
| 2026-04-19 08:46 | 39.85901 | 64.50172 | 2530 ft | 150 kts | 190° |
| 2026-04-19 08:46 | 39.84889 | 64.49915 | 2409 ft | 149 kts | 188° |
| 2026-04-19 08:46 | 39.83855 | 64.49682 | 2138 ft | 151 kts | 192° |
| 2026-04-19 08:47 | 39.82826 | 64.49443 | 1764 ft | 150 kts | 188° |
| 2026-04-19 08:47 | 39.81792 | 64.49239 | 1406 ft | 150 kts | 189° |
| 2026-04-19 08:47 | 39.80758 | 64.48991 | 1183 ft | 151 kts | 188° |
| 2026-04-19 08:47 | 39.79728 | 64.48739 | 955 ft | 150 kts | 188° |
| 2026-04-19 08:48 | 39.78697 | 64.48499 | 787 ft | 149 kts | 187° |
| 2026-04-19 08:48 | 39.77738 | 64.48274 | 768 ft | 129 kts | 187° |
| 2026-04-19 08:48 | 39.76952 | 64.48098 | 755 ft | 82 kts | 190° |
| 2026-04-19 08:48 | 39.76673 | 64.48015 | 753 ft | 26 kts | 211° |
| 2026-04-19 08:49 | 39.76647 | 64.47909 | 754 ft | 9 kts | 279° |
| 2026-04-19 08:49 | 39.76655 | 64.47796 | 753 ft | 21 kts | 260° |
| 2026-04-19 08:49 | 39.76643 | 64.47667 | 752 ft | 0 kts | 300° |
| 2026-04-19 08:49 | 39.76675 | 64.47658 | 751 ft | 8 kts | 6° |
| 2026-04-19 08:50 | 39.76682 | 64.47660 | 752 ft | 0 kts | 8° |